sensor_id;sensor_type;location;lat;lon;timestamp;pressure;altitude;pressure_sealevel;temperature;humidity
72798;BME280;61084;55.816;37.036;2022-09-30T00:01:44;99243.59;;;9.68;73.44
72798;BME280;61084;55.816;37.036;2022-09-30T00:04:13;99240.91;;;9.70;73.46
72798;BME280;61084;55.816;37.036;2022-09-30T00:06:39;99243.44;;;9.71;73.30
72798;BME280;61084;55.816;37.036;2022-09-30T00:09:05;99248.59;;;9.73;73.26
72798;BME280;61084;55.816;37.036;2022-09-30T00:11:33;99249.38;;;9.75;73.58
72798;BME280;61084;55.816;37.036;2022-09-30T00:14:00;99249.28;;;9.76;73.58
72798;BME280;61084;55.816;37.036;2022-09-30T00:16:35;99251.91;;;9.76;73.79
72798;BME280;61084;55.816;37.036;2022-09-30T00:19:03;99253.50;;;9.79;73.51
72798;BME280;61084;55.816;37.036;2022-09-30T00:21:31;99262.13;;;9.81;73.58
72798;BME280;61084;55.816;37.036;2022-09-30T00:24:01;99257.00;;;9.79;73.52
72798;BME280;61084;55.816;37.036;2022-09-30T00:26:28;99264.84;;;9.79;73.62
72798;BME280;61084;55.816;37.036;2022-09-30T00:28:57;99260.38;;;9.81;73.60
72798;BME280;61084;55.816;37.036;2022-09-30T00:31:25;99264.00;;;9.79;73.60
72798;BME280;61084;55.816;37.036;2022-09-30T00:33:52;99270.25;;;9.76;73.63
72798;BME280;61084;55.816;37.036;2022-09-30T00:39:10;99257.41;;;9.72;73.77
72798;BME280;61084;55.816;37.036;2022-09-30T00:41:37;99265.25;;;9.72;73.50
72798;BME280;61084;55.816;37.036;2022-09-30T00:49:48;99253.16;;;9.69;73.57
72798;BME280;61084;55.816;37.036;2022-09-30T00:52:14;99253.16;;;9.69;73.44
72798;BME280;61084;55.816;37.036;2022-09-30T00:54:40;99257.56;;;9.69;73.61
72798;BME280;61084;55.816;37.036;2022-09-30T00:57:06;99266.25;;;9.69;73.60
72798;BME280;61084;55.816;37.036;2022-09-30T00:59:45;99264.50;;;9.70;73.39
72798;BME280;61084;55.816;37.036;2022-09-30T01:02:12;99255.84;;;9.68;73.59
72798;BME280;61084;55.816;37.036;2022-09-30T01:04:40;99261.09;;;9.68;73.56
72798;BME280;61084;55.816;37.036;2022-09-30T01:07:08;99258.47;;;9.68;73.84
72798;BME280;61084;55.816;37.036;2022-09-30T01:09:36;99260.09;;;9.70;73.71
72798;BME280;61084;55.816;37.036;2022-09-30T01:12:09;99256.63;;;9.70;73.65
72798;BME280;61084;55.816;37.036;2022-09-30T01:14:36;99265.41;;;9.69;73.85
72798;BME280;61084;55.816;37.036;2022-09-30T01:17:59;99262.13;;;9.65;73.92
72798;BME280;61084;55.816;37.036;2022-09-30T01:35:20;99273.66;;;9.61;73.51
72798;BME280;61084;55.816;37.036;2022-09-30T01:37:34;99270.25;;;9.59;73.61
72798;BME280;61084;55.816;37.036;2022-09-30T01:43:22;99270.25;;;9.59;73.51
72798;BME280;61084;55.816;37.036;2022-09-30T01:46:46;99260.63;;;9.60;73.73
72798;BME280;61084;55.816;37.036;2022-09-30T01:48:55;99262.41;;;9.59;73.92
72798;BME280;61084;55.816;37.036;2022-09-30T01:54:08;99260.50;;;9.63;73.87
72798;BME280;61084;55.816;37.036;2022-09-30T01:56:46;99255.25;;;9.63;74.21
72798;BME280;61084;55.816;37.036;2022-09-30T01:59:32;99256.09;;;9.63;74.21
72798;BME280;61084;55.816;37.036;2022-09-30T02:02:13;99253.31;;;9.66;74.21
72798;BME280;61084;55.816;37.036;2022-09-30T02:05:06;99258.41;;;9.69;74.05
72798;BME280;61084;55.816;37.036;2022-09-30T02:07:51;99262.78;;;9.69;74.16
72798;BME280;61084;55.816;37.036;2022-09-30T02:10:41;99256.56;;;9.71;74.19
72798;BME280;61084;55.816;37.036;2022-09-30T02:13:19;99247.75;;;9.72;74.27
72798;BME280;61084;55.816;37.036;2022-09-30T02:15:53;99245.97;;;9.73;74.43
72798;BME280;61084;55.816;37.036;2022-09-30T02:21:00;99254.47;;;9.78;74.27
72798;BME280;61084;55.816;37.036;2022-09-30T02:23:32;99252.75;;;9.77;74.16
72798;BME280;61084;55.816;37.036;2022-09-30T02:26:07;99256.31;;;9.76;74.10
72798;BME280;61084;55.816;37.036;2022-09-30T02:28:40;99258.94;;;9.76;74.20
72798;BME280;61084;55.816;37.036;2022-09-30T02:31:11;99258.94;;;9.76;74.10
72798;BME280;61084;55.816;37.036;2022-09-30T02:34:16;99253.69;;;9.76;74.09
72798;BME280;61084;55.816;37.036;2022-09-30T02:36:48;99251.91;;;9.76;74.37
72798;BME280;61084;55.816;37.036;2022-09-30T02:40:10;99256.31;;;9.76;74.05
72798;BME280;61084;55.816;37.036;2022-09-30T02:42:29;99248.59;;;9.73;73.95
72798;BME280;61084;55.816;37.036;2022-09-30T02:45:02;99248.44;;;9.76;74.08
72798;BME280;61084;55.816;37.036;2022-09-30T02:50:26;99252.84;;;9.75;74.36
72798;BME280;61084;55.816;37.036;2022-09-30T02:58:51;99266.94;;;9.73;74.17
72798;BME280;61084;55.816;37.036;2022-09-30T03:01:21;99256.63;;;9.70;74.02
72798;BME280;61084;55.816;37.036;2022-09-30T03:03:58;99255.78;;;9.69;74.07
72798;BME280;61084;55.816;37.036;2022-09-30T03:06:27;99265.31;;;9.70;74.26
72798;BME280;61084;55.816;37.036;2022-09-30T03:08:54;99275.75;;;9.72;73.99
72798;BME280;61084;55.816;37.036;2022-09-30T03:11:22;99274.13;;;9.69;74.25
72798;BME280;61084;55.816;37.036;2022-09-30T03:25:54;99247.97;;;9.68;74.17
72798;BME280;61084;55.816;37.036;2022-09-30T03:28:26;99261.94;;;9.68;74.10
72798;BME280;61084;55.816;37.036;2022-09-30T03:37:45;99261.16;;;9.66;73.91
72798;BME280;61084;55.816;37.036;2022-09-30T03:40:07;99274.38;;;9.65;73.94
72798;BME280;61084;55.816;37.036;2022-09-30T03:42:42;99263.97;;;9.63;73.82
72798;BME280;61084;55.816;37.036;2022-09-30T03:45:35;99264.78;;;9.64;73.77
72798;BME280;61084;55.816;37.036;2022-09-30T03:48:06;99271.84;;;9.63;73.98
72798;BME280;61084;55.816;37.036;2022-09-30T03:50:34;99271.75;;;9.65;73.77
72798;BME280;61084;55.816;37.036;2022-09-30T03:53:02;99279.69;;;9.63;73.72
72798;BME280;61084;55.816;37.036;2022-09-30T03:55:29;99275.22;;;9.65;74.04
72798;BME280;61084;55.816;37.036;2022-09-30T03:57:57;99284.75;;;9.66;73.89
72798;BME280;61084;55.816;37.036;2022-09-30T04:00:23;99276.03;;;9.66;74.01
72798;BME280;61084;55.816;37.036;2022-09-30T04:02:49;99281.28;;;9.66;73.88
72798;BME280;61084;55.816;37.036;2022-09-30T04:05:15;99282.00;;;9.69;74.05
72798;BME280;61084;55.816;37.036;2022-09-30T04:07:41;99275.91;;;9.69;73.70
72798;BME280;61084;55.816;37.036;2022-09-30T04:10:07;99274.91;;;9.71;73.86
72798;BME280;61084;55.816;37.036;2022-09-30T04:12:33;99275.56;;;9.75;73.96
72798;BME280;61084;55.816;37.036;2022-09-30T04:14:59;99280.66;;;9.78;74.30
72798;BME280;61084;55.816;37.036;2022-09-30T04:17:25;99275.25;;;9.81;74.30
72798;BME280;61084;55.816;37.036;2022-09-30T04:19:50;99275.09;;;9.84;74.10
72798;BME280;61084;55.816;37.036;2022-09-30T04:22:16;99281.88;;;9.88;74.40
72798;BME280;61084;55.816;37.036;2022-09-30T04:24:42;99284.34;;;9.91;74.25
72798;BME280;61084;55.816;37.036;2022-09-30T04:27:08;99287.66;;;9.95;74.41
72798;BME280;61084;55.816;37.036;2022-09-30T04:29:34;99291.97;;;9.96;74.32
72798;BME280;61084;55.816;37.036;2022-09-30T04:32:00;99291.81;;;9.99;74.40
72798;BME280;61084;55.816;37.036;2022-09-30T04:34:26;99281.25;;;10.00;74.56
72798;BME280;61084;55.816;37.036;2022-09-30T04:36:52;99283.63;;;10.05;74.61
72798;BME280;61084;55.816;37.036;2022-09-30T04:39:17;99279.06;;;10.08;74.41
72798;BME280;61084;55.816;37.036;2022-09-30T04:41:43;99285.72;;;10.15;74.59
72798;BME280;61084;55.816;37.036;2022-09-30T04:44:09;99283.69;;;10.20;74.48
72798;BME280;61084;55.816;37.036;2022-09-30T04:46:35;99275.75;;;10.22;74.81
72798;BME280;61084;55.816;37.036;2022-09-30T04:49:03;99281.56;;;10.27;74.72
72798;BME280;61084;55.816;37.036;2022-09-30T04:51:29;99284.91;;;10.30;74.94
72798;BME280;61084;55.816;37.036;2022-09-30T04:53:55;99286.53;;;10.33;74.73
72798;BME280;61084;55.816;37.036;2022-09-30T04:56:21;99282.03;;;10.35;74.54
72798;BME280;61084;55.816;37.036;2022-09-30T04:58:50;99284.56;;;10.36;74.52
72798;BME280;61084;55.816;37.036;2022-09-30T05:01:16;99275.69;;;10.39;74.52
72798;BME280;61084;55.816;37.036;2022-09-30T05:03:43;99276.34;;;10.42;74.48
72798;BME280;61084;55.816;37.036;2022-09-30T05:06:10;99277.06;;;10.46;74.65
72798;BME280;61084;55.816;37.036;2022-09-30T05:08:36;99280.44;;;10.48;74.45
72798;BME280;61084;55.816;37.036;2022-09-30T05:11:07;99271.72;;;10.47;74.53
72798;BME280;61084;55.816;37.036;2022-09-30T05:13:38;99269.00;;;10.49;74.61
72798;BME280;61084;55.816;37.036;2022-09-30T05:16:06;99274.09;;;10.52;74.53
72798;BME280;61084;55.816;37.036;2022-09-30T05:18:33;99270.28;;;10.57;74.39
72798;BME280;61084;55.816;37.036;2022-09-30T05:21:00;99273.66;;;10.59;74.63
72798;BME280;61084;55.816;37.036;2022-09-30T05:23:26;99284.00;;;10.63;74.47
72798;BME280;61084;55.816;37.036;2022-09-30T05:25:52;99281.78;;;10.71;74.55
72798;BME280;61084;55.816;37.036;2022-09-30T05:28:19;99282.28;;;10.77;74.46
72798;BME280;61084;55.816;37.036;2022-09-30T05:30:46;99283.56;;;10.86;74.39
72798;BME280;61084;55.816;37.036;2022-09-30T05:33:12;99289.31;;;10.92;74.62
72798;BME280;61084;55.816;37.036;2022-09-30T05:35:41;99298.56;;;10.99;74.57
72798;BME280;61084;55.816;37.036;2022-09-30T05:38:08;99300.81;;;11.05;74.33
72798;BME280;61084;55.816;37.036;2022-09-30T05:40:38;99303.09;;;11.11;74.61
72798;BME280;61084;55.816;37.036;2022-09-30T05:43:05;99293.78;;;11.21;74.41
72798;BME280;61084;55.816;37.036;2022-09-30T05:45:31;99290.63;;;11.30;74.58
72798;BME280;61084;55.816;37.036;2022-09-30T05:47:58;99293.81;;;11.35;74.34
72798;BME280;61084;55.816;37.036;2022-09-30T05:50:24;99290.00;;;11.41;74.22
72798;BME280;61084;55.816;37.036;2022-09-30T05:52:51;99286.25;;;11.45;74.33
72798;BME280;61084;55.816;37.036;2022-09-30T05:55:18;99292.09;;;11.50;73.92
72798;BME280;61084;55.816;37.036;2022-09-30T05:57:47;99284.72;;;11.57;74.06
72798;BME280;61084;55.816;37.036;2022-09-30T06:00:13;99286.63;;;11.69;74.00
72798;BME280;61084;55.816;37.036;2022-09-30T06:02:39;99288.81;;;11.76;73.87
72798;BME280;61084;55.816;37.036;2022-09-30T06:05:06;99280.19;;;11.74;73.53
72798;BME280;61084;55.816;37.036;2022-09-30T06:07:33;99286.00;;;11.79;73.63
72798;BME280;61084;55.816;37.036;2022-09-30T06:10:00;99300.66;;;11.83;73.27
72798;BME280;61084;55.816;37.036;2022-09-30T06:12:26;99297.94;;;11.85;73.38
72798;BME280;61084;55.816;37.036;2022-09-30T06:14:54;99301.13;;;11.90;72.93
72798;BME280;61084;55.816;37.036;2022-09-30T06:17:20;99294.84;;;11.92;73.22
72798;BME280;61084;55.816;37.036;2022-09-30T06:19:46;99298.81;;;11.99;73.31
72798;BME280;61084;55.816;37.036;2022-09-30T06:22:12;99292.41;;;12.03;73.32
72798;BME280;61084;55.816;37.036;2022-09-30T06:24:38;99295.63;;;12.08;73.33
72798;BME280;61084;55.816;37.036;2022-09-30T06:27:04;99292.88;;;12.10;73.19
72798;BME280;61084;55.816;37.036;2022-09-30T06:29:30;99296.16;;;12.13;73.23
72798;BME280;61084;55.816;37.036;2022-09-30T06:31:56;99282.66;;;12.20;72.90
72798;BME280;61084;55.816;37.036;2022-09-30T06:34:22;99283.94;;;12.27;73.05
72798;BME280;61084;55.816;37.036;2022-09-30T06:36:48;99282.75;;;12.32;72.94
72798;BME280;61084;55.816;37.036;2022-09-30T06:39:14;99291.09;;;12.39;72.79
72798;BME280;61084;55.816;37.036;2022-09-30T06:41:40;99288.94;;;12.45;72.69
72798;BME280;61084;55.816;37.036;2022-09-30T06:44:08;99292.16;;;12.50;72.46
72798;BME280;61084;55.816;37.036;2022-09-30T06:46:34;99302.41;;;12.55;72.46
72798;BME280;61084;55.816;37.036;2022-09-30T06:49:00;99300.41;;;12.58;72.20
72798;BME280;61084;55.816;37.036;2022-09-30T06:51:29;99308.09;;;12.61;72.03
72798;BME280;61084;55.816;37.036;2022-09-30T06:53:57;99314.03;;;12.65;72.19
72798;BME280;61084;55.816;37.036;2022-09-30T06:56:22;99310.16;;;12.70;72.15
72798;BME280;61084;55.816;37.036;2022-09-30T06:58:48;99311.66;;;12.74;72.20
72798;BME280;61084;55.816;37.036;2022-09-30T07:01:14;99310.53;;;12.78;71.84
72798;BME280;61084;55.816;37.036;2022-09-30T07:03:42;99304.03;;;12.84;71.75
72798;BME280;61084;55.816;37.036;2022-09-30T07:06:11;99308.88;;;12.90;71.74
72798;BME280;61084;55.816;37.036;2022-09-30T07:08:37;99308.31;;;12.99;71.91
72798;BME280;61084;55.816;37.036;2022-09-30T07:11:11;99313.94;;;13.07;71.74
72798;BME280;61084;55.816;37.036;2022-09-30T07:13:40;99312.53;;;13.16;71.66
72798;BME280;61084;55.816;37.036;2022-09-30T07:16:08;99311.19;;;13.23;71.32
72798;BME280;61084;55.816;37.036;2022-09-30T07:18:36;99314.06;;;13.32;71.50
72798;BME280;61084;55.816;37.036;2022-09-30T07:21:03;99316.09;;;13.41;71.38
72798;BME280;61084;55.816;37.036;2022-09-30T07:23:29;99313.63;;;13.52;71.29
72798;BME280;61084;55.816;37.036;2022-09-30T07:25:58;99305.06;;;13.61;70.72
72798;BME280;61084;55.816;37.036;2022-09-30T07:28:27;99306.28;;;13.70;70.89
72798;BME280;61084;55.816;37.036;2022-09-30T07:30:58;99313.47;;;13.81;70.85
72798;BME280;61084;55.816;37.036;2022-09-30T07:33:25;99306.72;;;13.89;70.17
72798;BME280;61084;55.816;37.036;2022-09-30T07:35:57;99307.03;;;13.97;70.25
72798;BME280;61084;55.816;37.036;2022-09-30T07:38:26;99306.72;;;14.02;70.14
72798;BME280;61084;55.816;37.036;2022-09-30T07:40:54;99295.84;;;14.06;70.06
72798;BME280;61084;55.816;37.036;2022-09-30T07:43:24;99300.69;;;14.12;69.95
72798;BME280;61084;55.816;37.036;2022-09-30T07:45:50;99294.91;;;14.20;69.67
72798;BME280;61084;55.816;37.036;2022-09-30T07:48:16;99288.78;;;14.32;69.69
72798;BME280;61084;55.816;37.036;2022-09-30T07:51:00;99301.53;;;14.51;69.89
72798;BME280;61084;55.816;37.036;2022-09-30T07:53:26;99288.31;;;14.63;69.85
72798;BME280;61084;55.816;37.036;2022-09-30T07:55:52;99292.00;;;14.73;69.64
72798;BME280;61084;55.816;37.036;2022-09-30T07:58:18;99297.69;;;14.80;69.28
72798;BME280;61084;55.816;37.036;2022-09-30T08:00:46;99291.94;;;14.86;68.87
72798;BME280;61084;55.816;37.036;2022-09-30T08:03:15;99290.56;;;14.93;69.33
72798;BME280;61084;55.816;37.036;2022-09-30T08:05:41;99293.66;;;15.10;69.16
72798;BME280;61084;55.816;37.036;2022-09-30T08:08:12;99292.88;;;15.21;69.23
72798;BME280;61084;55.816;37.036;2022-09-30T08:10:37;99296.88;;;15.27;68.38
72798;BME280;61084;55.816;37.036;2022-09-30T08:13:03;99297.72;;;15.27;68.70
72798;BME280;61084;55.816;37.036;2022-09-30T08:15:29;99304.44;;;15.31;68.20
72798;BME280;61084;55.816;37.036;2022-09-30T08:17:55;99298.91;;;15.47;68.20
72798;BME280;61084;55.816;37.036;2022-09-30T08:20:21;99296.56;;;15.55;68.00
72798;BME280;61084;55.816;37.036;2022-09-30T08:22:51;99279.53;;;15.70;67.85
72798;BME280;61084;55.816;37.036;2022-09-30T08:25:17;99280.00;;;15.75;67.42
72798;BME280;61084;55.816;37.036;2022-09-30T08:27:42;99281.22;;;15.82;67.54
72798;BME280;61084;55.816;37.036;2022-09-30T08:30:08;99274.16;;;15.94;67.25
72798;BME280;61084;55.816;37.036;2022-09-30T08:32:34;99275.72;;;16.07;67.25
72798;BME280;61084;55.816;37.036;2022-09-30T08:35:00;99275.75;;;16.18;66.40
72798;BME280;61084;55.816;37.036;2022-09-30T08:37:26;99273.72;;;16.33;67.21
72798;BME280;61084;55.816;37.036;2022-09-30T08:39:52;99282.06;;;16.50;67.25
72798;BME280;61084;55.816;37.036;2022-09-30T08:42:39;99288.09;;;16.64;66.54
72798;BME280;61084;55.816;37.036;2022-09-30T08:45:31;99288.03;;;16.86;66.24
72798;BME280;61084;55.816;37.036;2022-09-30T08:53:25;99276.28;;;17.10;65.37
72798;BME280;61084;55.816;37.036;2022-09-30T08:55:55;99279.06;;;17.20;65.20
72798;BME280;61084;55.816;37.036;2022-09-30T08:58:29;99283.00;;;17.25;64.97
72798;BME280;61084;55.816;37.036;2022-09-30T09:01:01;99284.91;;;17.34;64.73
72798;BME280;61084;55.816;37.036;2022-09-30T09:03:29;99274.63;;;17.41;65.10
72798;BME280;61084;55.816;37.036;2022-09-30T09:06:10;99281.13;;;17.48;64.35
72798;BME280;61084;55.816;37.036;2022-09-30T09:17:11;99288.41;;;17.67;64.92
72798;BME280;61084;55.816;37.036;2022-09-30T09:19:47;99279.34;;;17.69;65.21
72798;BME280;61084;55.816;37.036;2022-09-30T09:22:16;99282.00;;;17.69;63.12
72798;BME280;61084;55.816;37.036;2022-09-30T09:24:45;99271.38;;;17.69;63.54
72798;BME280;61084;55.816;37.036;2022-09-30T09:30:12;99258.31;;;17.98;64.26
72798;BME280;61084;55.816;37.036;2022-09-30T09:32:38;99260.88;;;18.09;63.89
72798;BME280;61084;55.816;37.036;2022-09-30T09:35:14;99260.03;;;18.08;63.55
72798;BME280;61084;55.816;37.036;2022-09-30T09:37:54;99271.75;;;18.06;63.46
72798;BME280;61084;55.816;37.036;2022-09-30T09:46:25;99272.84;;;18.03;63.45
72798;BME280;61084;55.816;37.036;2022-09-30T09:54:39;99275.75;;;18.21;63.53
72798;BME280;61084;55.816;37.036;2022-09-30T09:57:07;99274.25;;;18.28;63.78
72798;BME280;61084;55.816;37.036;2022-09-30T09:59:34;99273.88;;;18.33;63.75
72798;BME280;61084;55.816;37.036;2022-09-30T10:02:00;99273.00;;;18.32;63.22
72798;BME280;61084;55.816;37.036;2022-09-30T10:04:29;99268.00;;;18.39;63.23
72798;BME280;61084;55.816;37.036;2022-09-30T10:06:58;99271.38;;;18.41;62.88
72798;BME280;61084;55.816;37.036;2022-09-30T10:09:35;99266.75;;;18.43;63.17
72798;BME280;61084;55.816;37.036;2022-09-30T10:14:56;99263.03;;;18.45;63.59
72798;BME280;61084;55.816;37.036;2022-09-30T10:17:29;99268.22;;;18.47;62.70
72798;BME280;61084;55.816;37.036;2022-09-30T10:20:18;99259.88;;;18.61;62.60
72798;BME280;61084;55.816;37.036;2022-09-30T10:22:46;99247.34;;;18.72;62.91
72798;BME280;61084;55.816;37.036;2022-09-30T10:27:56;99252.25;;;18.87;62.47
72798;BME280;61084;55.816;37.036;2022-09-30T10:33:01;99254.81;;;19.07;62.32
72798;BME280;61084;55.816;37.036;2022-09-30T10:35:29;99262.09;;;19.15;62.14
72798;BME280;61084;55.816;37.036;2022-09-30T10:37:57;99258.03;;;19.11;61.84
72798;BME280;61084;55.816;37.036;2022-09-30T10:40:27;99263.63;;;19.08;61.73
72798;BME280;61084;55.816;37.036;2022-09-30T10:42:54;99267.38;;;19.05;61.78
72798;BME280;61084;55.816;37.036;2022-09-30T10:45:23;99269.94;;;19.07;61.90
72798;BME280;61084;55.816;37.036;2022-09-30T10:47:52;99264.22;;;19.11;61.83
72798;BME280;61084;55.816;37.036;2022-09-30T10:50:22;99269.38;;;19.13;62.25
72798;BME280;61084;55.816;37.036;2022-09-30T10:53:03;99262.25;;;19.13;61.18
72798;BME280;61084;55.816;37.036;2022-09-30T10:55:40;99261.66;;;19.10;61.77
72798;BME280;61084;55.816;37.036;2022-09-30T10:58:22;99267.84;;;19.10;61.35
72798;BME280;61084;55.816;37.036;2022-09-30T11:00:58;99269.22;;;19.14;61.23
72798;BME280;61084;55.816;37.036;2022-09-30T11:03:33;99270.22;;;19.13;61.51
72798;BME280;61084;55.816;37.036;2022-09-30T11:06:03;99273.84;;;19.12;61.63
72798;BME280;61084;55.816;37.036;2022-09-30T11:08:43;99277.63;;;19.10;61.46
72798;BME280;61084;55.816;37.036;2022-09-30T11:11:26;99274.00;;;19.11;61.97
72798;BME280;61084;55.816;37.036;2022-09-30T11:14:16;99280.88;;;19.13;60.84
72798;BME280;61084;55.816;37.036;2022-09-30T11:22:52;99276.94;;;18.98;61.46
72798;BME280;61084;55.816;37.036;2022-09-30T11:25:31;99281.81;;;18.93;62.00
72798;BME280;61084;55.816;37.036;2022-09-30T11:28:15;99291.88;;;18.90;61.38
72798;BME280;61084;55.816;37.036;2022-09-30T11:45:07;99285.38;;;18.73;62.71
72798;BME280;61084;55.816;37.036;2022-09-30T11:55:57;99293.03;;;18.57;62.80
72798;BME280;61084;55.816;37.036;2022-09-30T11:58:31;99297.50;;;18.56;63.13
72798;BME280;61084;55.816;37.036;2022-09-30T12:04:17;99291.44;;;18.45;63.42
72798;BME280;61084;55.816;37.036;2022-09-30T12:06:59;99293.63;;;18.40;63.17
72798;BME280;61084;55.816;37.036;2022-09-30T12:09:29;99286.63;;;18.39;63.32
72798;BME280;61084;55.816;37.036;2022-09-30T12:12:11;99287.72;;;18.36;63.34
72798;BME280;61084;55.816;37.036;2022-09-30T12:14:46;99288.81;;;18.34;63.14
72798;BME280;61084;55.816;37.036;2022-09-30T12:20:06;99301.69;;;18.29;63.78
72798;BME280;61084;55.816;37.036;2022-09-30T12:22:38;99303.63;;;18.27;63.78
72798;BME280;61084;55.816;37.036;2022-09-30T12:25:42;99299.53;;;18.23;63.96
72798;BME280;61084;55.816;37.036;2022-09-30T12:42:48;99305.84;;;18.22;64.65
72798;BME280;61084;55.816;37.036;2022-09-30T12:47:55;99301.63;;;18.19;64.91
72798;BME280;61084;55.816;37.036;2022-09-30T12:50:26;99314.91;;;18.19;65.02
72798;BME280;61084;55.816;37.036;2022-09-30T12:52:55;99313.25;;;18.18;64.90
72798;BME280;61084;55.816;37.036;2022-09-30T12:55:37;99311.53;;;18.17;64.85
72798;BME280;61084;55.816;37.036;2022-09-30T12:58:05;99317.94;;;18.15;65.21
72798;BME280;61084;55.816;37.036;2022-09-30T13:00:39;99317.09;;;18.14;65.22
72798;BME280;61084;55.816;37.036;2022-09-30T13:03:14;99313.72;;;18.12;65.41
72798;BME280;61084;55.816;37.036;2022-09-30T13:05:46;99318.22;;;18.12;65.37
72798;BME280;61084;55.816;37.036;2022-09-30T13:08:21;99316.38;;;18.12;65.52
72798;BME280;61084;55.816;37.036;2022-09-30T13:10:59;99318.34;;;18.10;65.39
72798;BME280;61084;55.816;37.036;2022-09-30T13:13:28;99320.28;;;18.08;65.63
72798;BME280;61084;55.816;37.036;2022-09-30T13:15:57;99325.59;;;18.08;65.66
72798;BME280;61084;55.816;37.036;2022-09-30T13:26:31;99335.34;;;17.98;65.83
72798;BME280;61084;55.816;37.036;2022-09-30T13:31:28;99343.06;;;17.90;65.97
72798;BME280;61084;55.816;37.036;2022-09-30T13:36:38;99345.53;;;17.82;66.18
72798;BME280;61084;55.816;37.036;2022-09-30T13:48:00;99368.38;;;17.73;66.60
72798;BME280;61084;55.816;37.036;2022-09-30T13:50:51;99373.22;;;17.68;66.60
72798;BME280;61084;55.816;37.036;2022-09-30T13:53:34;99365.41;;;17.67;66.72
72798;BME280;61084;55.816;37.036;2022-09-30T13:56:07;99367.47;;;17.63;66.82
72798;BME280;61084;55.816;37.036;2022-09-30T13:59:05;99377.47;;;17.60;66.73
72798;BME280;61084;55.816;37.036;2022-09-30T14:07:43;99371.47;;;17.35;66.98
72798;BME280;61084;55.816;37.036;2022-09-30T14:21:48;99387.19;;;17.16;68.07
72798;BME280;61084;55.816;37.036;2022-09-30T14:24:26;99383.72;;;17.16;68.12
72798;BME280;61084;55.816;37.036;2022-09-30T14:32:13;99382.88;;;17.15;68.02
72798;BME280;61084;55.816;37.036;2022-09-30T14:34:40;99391.69;;;17.16;68.05
72798;BME280;61084;55.816;37.036;2022-09-30T14:37:15;99392.63;;;17.15;68.40
72798;BME280;61084;55.816;37.036;2022-09-30T14:39:45;99389.41;;;17.11;68.42
72798;BME280;61084;55.816;37.036;2022-09-30T14:42:20;99389.28;;;17.13;68.26
72798;BME280;61084;55.816;37.036;2022-09-30T14:44:49;99392.06;;;17.11;68.21
72798;BME280;61084;55.816;37.036;2022-09-30T14:47:16;99388.69;;;17.09;68.39
72798;BME280;61084;55.816;37.036;2022-09-30T14:49:42;99392.88;;;17.12;68.54
72798;BME280;61084;55.816;37.036;2022-09-30T14:52:40;99399.03;;;17.12;68.70
72798;BME280;61084;55.816;37.036;2022-09-30T14:55:36;99400.72;;;17.13;68.77
72798;BME280;61084;55.816;37.036;2022-09-30T14:58:25;99396.38;;;17.12;68.76
72798;BME280;61084;55.816;37.036;2022-09-30T15:01:15;99407.25;;;17.09;69.03
72798;BME280;61084;55.816;37.036;2022-09-30T15:03:48;99406.50;;;17.07;68.97
72798;BME280;61084;55.816;37.036;2022-09-30T15:06:19;99406.63;;;17.06;69.10
72798;BME280;61084;55.816;37.036;2022-09-30T15:08:46;99412.06;;;17.04;69.18
72798;BME280;61084;55.816;37.036;2022-09-30T15:11:18;99414.84;;;17.03;69.07
72798;BME280;61084;55.816;37.036;2022-09-30T15:13:47;99417.50;;;17.03;69.31
72798;BME280;61084;55.816;37.036;2022-09-30T15:16:25;99416.88;;;16.99;69.36
72798;BME280;61084;55.816;37.036;2022-09-30T15:18:52;99421.22;;;17.00;69.53
72798;BME280;61084;55.816;37.036;2022-09-30T15:21:19;99423.03;;;17.00;69.36
72798;BME280;61084;55.816;37.036;2022-09-30T15:23:54;99421.47;;;16.97;69.78
72798;BME280;61084;55.816;37.036;2022-09-30T15:26:22;99428.19;;;16.90;69.73
72798;BME280;61084;55.816;37.036;2022-09-30T15:28:49;99432.06;;;16.86;69.87
72798;BME280;61084;55.816;37.036;2022-09-30T15:31:35;99428.81;;;16.83;70.18
72798;BME280;61084;55.816;37.036;2022-09-30T15:34:18;99435.06;;;16.82;70.49
72798;BME280;61084;55.816;37.036;2022-09-30T15:36:46;99441.44;;;16.79;70.15
72798;BME280;61084;55.816;37.036;2022-09-30T15:39:22;99438.06;;;16.77;70.55
72798;BME280;61084;55.816;37.036;2022-09-30T15:41:50;99441.81;;;16.75;70.73
72798;BME280;61084;55.816;37.036;2022-09-30T15:44:19;99453.25;;;16.75;70.84
72798;BME280;61084;55.816;37.036;2022-09-30T15:47:00;99450.88;;;16.72;70.73
72798;BME280;61084;55.816;37.036;2022-09-30T15:49:31;99446.50;;;16.71;71.11
72798;BME280;61084;55.816;37.036;2022-09-30T15:52:28;99444.84;;;16.70;71.19
72798;BME280;61084;55.816;37.036;2022-09-30T15:54:56;99447.50;;;16.70;71.01
72798;BME280;61084;55.816;37.036;2022-09-30T15:57:47;99453.59;;;16.71;71.40
72798;BME280;61084;55.816;37.036;2022-09-30T16:00:36;99453.59;;;16.71;71.44
72798;BME280;61084;55.816;37.036;2022-09-30T16:03:29;99453.97;;;16.66;71.44
72798;BME280;61084;55.816;37.036;2022-09-30T16:06:07;99455.78;;;16.66;71.47
72798;BME280;61084;55.816;37.036;2022-09-30T16:08:57;99456.88;;;16.63;71.61
72798;BME280;61084;55.816;37.036;2022-09-30T16:14:31;99466.84;;;16.59;71.51
72798;BME280;61084;55.816;37.036;2022-09-30T16:17:02;99466.13;;;16.57;71.82
72798;BME280;61084;55.816;37.036;2022-09-30T16:19:30;99472.63;;;16.53;71.69
72798;BME280;61084;55.816;37.036;2022-09-30T16:21:57;99459.50;;;16.52;72.18
72798;BME280;61084;55.816;37.036;2022-09-30T16:26:56;99470.22;;;16.50;72.18
72798;BME280;61084;55.816;37.036;2022-09-30T16:29:23;99470.28;;;16.49;72.19
72798;BME280;61084;55.816;37.036;2022-09-30T16:31:52;99473.78;;;16.49;72.16
72798;BME280;61084;55.816;37.036;2022-09-30T16:34:28;99475.50;;;16.50;72.21